Time;durP1;ratioP1;P1;durP2;ratioP2;P2;SDS_P1;SDS_P2;PMS_P1;PMS_P2;Temp;Humidity;BMP_temperature;BMP_pressure;BME280_temperature;BME280_humidity;BME280_pressure;Samples;Min_cycle;Max_cycle;Signal;HPM_P1;HPM_P2
2022/03/29 00:02:10;;;;;;;7.35;4.55;;;;;;;;;;5059686;28;20547;-80
2022/03/29 00:04:36;;;;;;;6.95;4.32;;;;;;;;;;5059309;28;20463;-80
2022/03/29 00:07:01;;;;;;;5.88;4.22;;;;;;;;;;5043069;28;20111;-80
2022/03/29 00:09:27;;;;;;;8.30;4.90;;;;;;;;;;5076070;28;20059;-79
2022/03/29 00:11:52;;;;;;;6.43;4.10;;;;;;;;;;5059812;28;20406;-79
2022/03/29 00:14:18;;;;;;;5.65;4.03;;;;;;;;;;5058905;28;20032;-80
2022/03/29 00:16:43;;;;;;;6.35;4.30;;;;;;;;;;5042658;28;20121;-80
2022/03/29 00:19:09;;;;;;;6.70;3.83;;;;;;;;;;5076129;28;20098;-80
2022/03/29 00:21:34;;;;;;;7.07;4.25;;;;;;;;;;5059625;28;20035;-80
2022/03/29 00:24:00;;;;;;;5.18;3.92;;;;;;;;;;5075476;28;20025;-79
2022/03/29 00:26:26;;;;;;;5.47;4.20;;;;;;;;;;5076160;28;20036;-79
2022/03/29 00:28:52;;;;;;;7.78;4.70;;;;;;;;;;5058696;28;20028;-79
2022/03/29 00:31:19;;;;;;;6.47;4.10;;;;;;;;;;5059220;28;20032;-80
2022/03/29 00:33:46;;;;;;;7.20;4.35;;;;;;;;;;5076137;28;20436;-79
2022/03/29 00:36:12;;;;;;;8.02;4.72;;;;;;;;;;5059081;28;20024;-80
2022/03/29 00:38:37;;;;;;;6.20;4.28;;;;;;;;;;5075519;28;20490;-79
2022/03/29 00:41:03;;;;;;;6.45;4.43;;;;;;;;;;5075576;28;20067;-79
2022/03/29 00:43:28;;;;;;;7.00;5.03;;;;;;;;;;5057373;28;20390;-80
2022/03/29 00:45:54;;;;;;;5.75;3.83;;;;;;;;;;5075514;28;20039;-79
2022/03/29 00:48:19;;;;;;;6.43;4.55;;;;;;;;;;5092375;28;20044;-80
2022/03/29 00:50:45;;;;;;;6.05;4.35;;;;;;;;;;5075330;28;20044;-79
2022/03/29 00:53:10;;;;;;;7.13;4.75;;;;;;;;;;5092165;28;20407;-79
2022/03/29 00:55:36;;;;;;;6.47;4.30;;;;;;;;;;5091951;28;20096;-79
2022/03/29 00:58:03;;;;;;;6.88;4.95;;;;;;;;;;5078517;28;20099;-79
2022/03/29 01:00:30;;;;;;;6.40;4.35;;;;;;;;;;5058817;28;20040;-79
2022/03/29 01:02:55;;;;;;;5.97;3.95;;;;;;;;;;5075394;28;20085;-80
2022/03/29 01:05:21;;;;;;;7.45;4.40;;;;;;;;;;5074957;28;20036;-79
2022/03/29 01:07:46;;;;;;;7.57;4.15;;;;;;;;;;5058070;28;20406;-79
2022/03/29 01:10:12;;;;;;;7.07;4.40;;;;;;;;;;5058386;28;20093;-79
2022/03/29 01:12:37;;;;;;;6.25;4.32;;;;;;;;;;5041320;28;20444;-79
2022/03/29 01:15:07;;;;;;;5.70;4.20;;;;;;;;;;5058611;28;20039;-79
2022/03/29 01:17:38;;;;;;;5.57;3.92;;;;;;;;;;5058216;28;20032;-80
2022/03/29 01:20:09;;;;;;;5.40;3.92;;;;;;;;;;5075794;28;20134;-80
2022/03/29 01:22:35;;;;;;;7.40;4.53;;;;;;;;;;5059873;28;20031;-80
2022/03/29 01:25:01;;;;;;;6.82;4.32;;;;;;;;;;5094581;28;20058;-79
2022/03/29 01:27:29;;;;;;;6.72;4.32;;;;;;;;;;5061196;28;20497;-80
2022/03/29 01:29:59;;;;;;;6.63;4.30;;;;;;;;;;5095078;28;20039;-79
2022/03/29 01:32:29;;;;;;;6.47;4.15;;;;;;;;;;5095810;28;20118;-80
2022/03/29 01:34:55;;;;;;;5.88;4.22;;;;;;;;;;5095719;28;20111;-80
2022/03/29 01:37:21;;;;;;;6.82;4.57;;;;;;;;;;5055998;28;20143;-80
2022/03/29 01:39:46;;;;;;;6.72;4.45;;;;;;;;;;5074343;28;20067;-79
2022/03/29 01:42:11;;;;;;;8.73;5.40;;;;;;;;;;5057388;28;20101;-79
2022/03/29 01:44:37;;;;;;;6.00;4.18;;;;;;;;;;5057658;28;20040;-79
2022/03/29 01:47:03;;;;;;;7.45;4.75;;;;;;;;;;5057779;28;20036;-79
2022/03/29 01:49:28;;;;;;;7.18;4.50;;;;;;;;;;5057767;28;20542;-80
2022/03/29 01:51:55;;;;;;;7.57;5.18;;;;;;;;;;5074359;28;20036;-80
2022/03/29 01:54:21;;;;;;;9.05;4.63;;;;;;;;;;5074153;28;20043;-80
2022/03/29 01:56:47;;;;;;;7.75;4.15;;;;;;;;;;5075792;28;20035;-79
2022/03/29 01:59:12;;;;;;;6.32;4.00;;;;;;;;;;5074122;28;20402;-79
2022/03/29 02:01:42;;;;;;;6.43;4.00;;;;;;;;;;5074088;28;20043;-79
2022/03/29 02:04:07;;;;;;;6.95;4.97;;;;;;;;;;5057873;28;20126;-79
2022/03/29 02:06:33;;;;;;;7.20;5.20;;;;;;;;;;5057054;28;20481;-79
2022/03/29 02:08:59;;;;;;;7.47;4.65;;;;;;;;;;5040158;28;20131;-79
2022/03/29 02:11:24;;;;;;;9.48;5.38;;;;;;;;;;5041011;28;20488;-79
2022/03/29 02:13:50;;;;;;;6.53;4.60;;;;;;;;;;5057621;28;20092;-79
2022/03/29 02:16:15;;;;;;;7.30;5.25;;;;;;;;;;5090582;28;20036;-79
2022/03/29 02:18:41;;;;;;;7.20;4.72;;;;;;;;;;5090641;28;20144;-80
2022/03/29 02:21:06;;;;;;;6.43;4.32;;;;;;;;;;5073846;28;20035;-79
2022/03/29 02:23:32;;;;;;;7.90;5.13;;;;;;;;;;5072903;28;20040;-79
2022/03/29 02:25:57;;;;;;;6.82;4.93;;;;;;;;;;5057233;28;20036;-79
2022/03/29 02:28:23;;;;;;;7.70;4.80;;;;;;;;;;5073739;28;20402;-80
2022/03/29 02:30:48;;;;;;;7.78;5.22;;;;;;;;;;5057091;28;20370;-79
2022/03/29 02:33:15;;;;;;;9.20;6.10;;;;;;;;;;5073268;28;20798;-80
2022/03/29 02:35:41;;;;;;;7.05;4.88;;;;;;;;;;5057669;28;20503;-79
2022/03/29 02:38:07;;;;;;;6.97;4.80;;;;;;;;;;5056343;28;20028;-80
2022/03/29 02:40:32;;;;;;;6.88;4.45;;;;;;;;;;5073989;28;20040;-79
2022/03/29 02:42:58;;;;;;;6.95;5.10;;;;;;;;;;5073712;28;20048;-79
2022/03/29 02:45:25;;;;;;;8.25;5.60;;;;;;;;;;5073587;28;20040;-80
2022/03/29 02:47:53;;;;;;;7.13;5.35;;;;;;;;;;5056883;28;20040;-80
2022/03/29 02:50:19;;;;;;;6.97;5.03;;;;;;;;;;5056102;28;20040;-80
2022/03/29 02:52:48;;;;;;;6.63;4.63;;;;;;;;;;5055725;28;20040;-79
2022/03/29 02:55:15;;;;;;;7.53;5.15;;;;;;;;;;5075311;28;20032;-80
2022/03/29 02:57:41;;;;;;;6.93;5.10;;;;;;;;;;5062985;28;20032;-79
2022/03/29 03:00:07;;;;;;;7.55;5.05;;;;;;;;;;5093283;28;20032;-79
2022/03/29 03:02:33;;;;;;;7.00;5.05;;;;;;;;;;5042808;28;20383;-80
2022/03/29 03:04:59;;;;;;;7.85;4.97;;;;;;;;;;5075985;28;20406;-79
2022/03/29 03:07:25;;;;;;;9.48;5.38;;;;;;;;;;5076053;28;20043;-79
2022/03/29 03:09:50;;;;;;;9.65;5.90;;;;;;;;;;5059332;28;20409;-80
2022/03/29 03:12:16;;;;;;;6.53;5.38;;;;;;;;;;5043019;28;20039;-79
2022/03/29 03:14:43;;;;;;;7.57;5.30;;;;;;;;;;5059019;28;20456;-80
2022/03/29 03:17:08;;;;;;;7.45;5.18;;;;;;;;;;5059208;28;20024;-80
2022/03/29 03:19:34;;;;;;;7.55;5.10;;;;;;;;;;5092581;28;20068;-80
2022/03/29 03:21:59;;;;;;;8.18;5.90;;;;;;;;;;5075975;28;20039;-80
2022/03/29 03:24:25;;;;;;;7.13;4.88;;;;;;;;;;5058748;28;20032;-80
2022/03/29 03:26:50;;;;;;;6.65;4.93;;;;;;;;;;5090016;28;20039;-80
2022/03/29 03:29:16;;;;;;;8.43;5.47;;;;;;;;;;5096188;28;20043;-79
2022/03/29 03:31:41;;;;;;;8.32;5.80;;;;;;;;;;5051916;28;20032;-80
2022/03/29 03:34:07;;;;;;;7.45;5.57;;;;;;;;;;5078374;28;20043;-79
2022/03/29 03:36:32;;;;;;;7.05;5.80;;;;;;;;;;5095678;28;20098;-79
2022/03/29 03:38:58;;;;;;;9.50;6.28;;;;;;;;;;5062066;28;20031;-79
2022/03/29 03:41:23;;;;;;;8.77;5.07;;;;;;;;;;5078997;28;20031;-79
2022/03/29 03:43:49;;;;;;;6.78;5.30;;;;;;;;;;5079047;28;20027;-79
2022/03/29 03:46:14;;;;;;;7.75;5.57;;;;;;;;;;5062103;28;20038;-79
2022/03/29 03:48:40;;;;;;;9.07;6.13;;;;;;;;;;5039782;28;1112683;-80
2022/03/29 03:51:05;;;;;;;7.00;5.30;;;;;;;;;;5079747;28;20038;-80
2022/03/29 03:53:31;;;;;;;8.23;5.40;;;;;;;;;;5113552;28;20076;-80
2022/03/29 03:55:56;;;;;;;7.18;5.22;;;;;;;;;;5079776;28;20068;-79
2022/03/29 03:58:22;;;;;;;6.75;5.03;;;;;;;;;;5079896;28;20100;-80
2022/03/29 04:00:47;;;;;;;7.82;5.95;;;;;;;;;;5093256;28;20035;-79
2022/03/29 04:03:13;;;;;;;9.07;5.55;;;;;;;;;;5060152;28;20508;-79
2022/03/29 04:05:38;;;;;;;6.40;5.05;;;;;;;;;;5075444;28;20040;-79
2022/03/29 04:08:04;;;;;;;6.63;5.40;;;;;;;;;;5042783;28;20421;-79
2022/03/29 04:10:31;;;;;;;6.95;5.60;;;;;;;;;;5043110;28;20032;-79
2022/03/29 04:12:56;;;;;;;8.82;5.95;;;;;;;;;;5076054;28;20036;-79
2022/03/29 04:15:22;;;;;;;8.30;5.80;;;;;;;;;;5043054;28;20024;-79
2022/03/29 04:17:47;;;;;;;8.38;5.90;;;;;;;;;;5075804;28;20494;-79
2022/03/29 04:20:12;;;;;;;8.32;5.95;;;;;;;;;;5075560;28;20048;-79
2022/03/29 04:22:38;;;;;;;7.78;5.53;;;;;;;;;;5061313;28;20395;-79
2022/03/29 04:25:04;;;;;;;8.88;5.35;;;;;;;;;;5062345;28;20088;-79
2022/03/29 04:27:30;;;;;;;7.47;5.43;;;;;;;;;;5062920;28;20077;-79
2022/03/29 04:29:55;;;;;;;7.57;5.60;;;;;;;;;;5062756;28;20118;-80
2022/03/29 04:32:21;;;;;;;7.45;5.30;;;;;;;;;;5096075;28;20040;-79
2022/03/29 04:34:48;;;;;;;9.82;5.93;;;;;;;;;;5095605;28;20405;-80
2022/03/29 04:37:13;;;;;;;9.65;5.75;;;;;;;;;;5080095;28;20075;-79
2022/03/29 04:39:39;;;;;;;9.32;6.13;;;;;;;;;;5095791;28;20595;-79
2022/03/29 04:42:05;;;;;;;8.90;6.20;;;;;;;;;;5062330;28;20057;-79
2022/03/29 04:44:32;;;;;;;7.15;5.22;;;;;;;;;;5079146;28;20032;-79
2022/03/29 04:46:57;;;;;;;7.63;6.07;;;;;;;;;;5079523;28;20036;-80
2022/03/29 04:49:23;;;;;;;7.35;5.97;;;;;;;;;;5095592;28;20510;-80
2022/03/29 04:51:48;;;;;;;7.20;5.47;;;;;;;;;;5078583;28;20070;-79
2022/03/29 04:54:14;;;;;;;8.30;6.07;;;;;;;;;;5078413;28;20035;-80
2022/03/29 04:56:39;;;;;;;7.82;6.07;;;;;;;;;;5078811;28;20405;-79
2022/03/29 04:59:05;;;;;;;8.73;5.80;;;;;;;;;;5091991;28;20023;-79
2022/03/29 05:01:30;;;;;;;8.05;5.93;;;;;;;;;;5058741;28;20036;-80
2022/03/29 05:03:56;;;;;;;8.75;5.82;;;;;;;;;;5074962;28;20387;-79
2022/03/29 05:06:21;;;;;;;7.85;6.03;;;;;;;;;;5041830;28;20039;-79
2022/03/29 05:08:46;;;;;;;7.65;6.18;;;;;;;;;;5041876;28;20028;-79
2022/03/29 05:11:12;;;;;;;8.63;5.93;;;;;;;;;;5075432;28;20036;-79
2022/03/29 05:13:38;;;;;;;7.13;5.57;;;;;;;;;;5058617;28;20098;-79
2022/03/29 05:16:03;;;;;;;7.95;5.78;;;;;;;;;;5091469;28;20113;-79
2022/03/29 05:18:29;;;;;;;10.52;5.85;;;;;;;;;;5057120;28;20404;-79
2022/03/29 05:20:54;;;;;;;7.63;6.00;;;;;;;;;;5074745;28;20044;-80
2022/03/29 05:23:20;;;;;;;7.43;5.70;;;;;;;;;;5062472;28;20028;-80
2022/03/29 05:25:45;;;;;;;6.93;5.78;;;;;;;;;;5057733;28;20097;-80
2022/03/29 05:28:11;;;;;;;8.40;5.40;;;;;;;;;;5074908;28;20055;-79
2022/03/29 05:30:37;;;;;;;7.72;5.95;;;;;;;;;;5092005;28;20036;-80
2022/03/29 05:33:03;;;;;;;8.10;5.88;;;;;;;;;;5073922;28;20107;-80
2022/03/29 05:35:33;;;;;;;8.00;5.80;;;;;;;;;;5074664;28;20047;-80
2022/03/29 05:38:00;;;;;;;7.47;6.10;;;;;;;;;;5075499;28;20032;-80
2022/03/29 05:40:26;;;;;;;8.93;6.18;;;;;;;;;;5058235;28;20055;-80
2022/03/29 05:42:52;;;;;;;7.85;5.53;;;;;;;;;;5074759;28;20073;-78
2022/03/29 05:45:17;;;;;;;8.75;6.25;;;;;;;;;;5074522;28;20036;-79
2022/03/29 05:50:27;;;;;;;7.70;6.30;;;;;;;;;;5076668;28;20048;-79
2022/03/29 05:52:53;;;;;;;8.18;6.03;;;;;;;;;;5057673;28;20077;-80
2022/03/29 05:55:19;;;;;;;9.43;6.32;;;;;;;;;;5076539;28;20044;-78
2022/03/29 05:57:44;;;;;;;8.18;5.63;;;;;;;;;;5077372;28;20035;-78
2022/03/29 06:00:10;;;;;;;7.32;5.88;;;;;;;;;;5091114;28;20039;-78
2022/03/29 06:02:37;;;;;;;11.05;7.43;;;;;;;;;;5057692;28;20028;-78
2022/03/29 06:05:03;;;;;;;25.17;18.73;;;;;;;;;;5038278;28;20038;-77
2022/03/29 06:07:28;;;;;;;20.23;11.35;;;;;;;;;;5071956;28;20036;-78
2022/03/29 06:09:54;;;;;;;22.33;14.68;;;;;;;;;;5055816;28;20490;-78
2022/03/29 06:12:22;;;;;;;29.52;20.98;;;;;;;;;;5057229;28;20050;-78
2022/03/29 06:14:49;;;;;;;52.15;40.22;;;;;;;;;;5083486;28;20070;-78
2022/03/29 06:17:14;;;;;;;53.17;40.50;;;;;;;;;;5076382;28;20043;-78
2022/03/29 06:19:39;;;;;;;54.17;41.28;;;;;;;;;;5076883;28;20063;-77
2022/03/29 06:22:05;;;;;;;51.50;36.35;;;;;;;;;;5074834;28;20040;-77
2022/03/29 06:24:31;;;;;;;46.95;36.45;;;;;;;;;;5074575;28;20039;-77
2022/03/29 06:26:58;;;;;;;46.45;34.08;;;;;;;;;;5077183;28;20108;-78
2022/03/29 06:29:23;;;;;;;42.88;34.08;;;;;;;;;;5093400;28;20489;-77
2022/03/29 06:31:49;;;;;;;39.38;30.75;;;;;;;;;;5093312;28;20039;-77
2022/03/29 06:34:14;;;;;;;43.55;31.33;;;;;;;;;;5076483;28;20051;-77
2022/03/29 06:36:41;;;;;;;42.35;31.45;;;;;;;;;;5073393;28;20036;-76
2022/03/29 06:39:08;;;;;;;38.65;29.27;;;;;;;;;;5076821;28;20122;-78
2022/03/29 06:41:34;;;;;;;38.38;29.63;;;;;;;;;;5092408;28;20029;-78
2022/03/29 06:44:00;;;;;;;37.00;28.17;;;;;;;;;;5054171;28;20049;-79
2022/03/29 06:46:25;;;;;;;35.15;27.65;;;;;;;;;;5075822;28;20488;-78
2022/03/29 06:48:50;;;;;;;33.33;26.30;;;;;;;;;;5074071;28;20048;-78
2022/03/29 06:51:17;;;;;;;36.58;27.05;;;;;;;;;;5092276;28;20051;-79
2022/03/29 06:53:43;;;;;;;33.10;25.42;;;;;;;;;;5073082;28;20047;-79
2022/03/29 06:56:08;;;;;;;34.40;25.50;;;;;;;;;;5075005;28;20100;-79
2022/03/29 06:58:35;;;;;;;37.58;25.40;;;;;;;;;;5076035;28;20044;-78
2022/03/29 07:01:00;;;;;;;35.30;24.63;;;;;;;;;;5075176;28;20121;-78
2022/03/29 07:03:27;;;;;;;32.83;24.58;;;;;;;;;;5076697;28;20709;-79
2022/03/29 07:05:53;;;;;;;37.28;22.13;;;;;;;;;;5075839;28;20490;-79
2022/03/29 07:08:20;;;;;;;29.23;22.13;;;;;;;;;;5075043;28;20049;-79
2022/03/29 07:13:30;;;;;;;26.67;20.35;;;;;;;;;;5107912;28;20042;-79
2022/03/29 07:15:56;;;;;;;27.77;21.27;;;;;;;;;;5072855;28;20410;-79
2022/03/29 07:18:21;;;;;;;27.77;20.88;;;;;;;;;;5056602;28;20114;-79
2022/03/29 07:20:47;;;;;;;28.15;20.30;;;;;;;;;;5091363;28;20023;-79
2022/03/29 07:23:13;;;;;;;26.60;20.58;;;;;;;;;;5092849;28;20448;-79
2022/03/29 07:25:38;;;;;;;27.95;17.55;;;;;;;;;;5075056;28;20027;-78
2022/03/29 07:28:04;;;;;;;29.33;19.00;;;;;;;;;;5091039;28;20196;-78
2022/03/29 07:30:31;;;;;;;23.20;17.17;;;;;;;;;;5092913;28;20031;-79
2022/03/29 07:32:57;;;;;;;24.30;18.98;;;;;;;;;;5077106;28;20047;-79
2022/03/29 07:35:24;;;;;;;25.90;17.13;;;;;;;;;;5076536;28;20042;-78
2022/03/29 07:37:50;;;;;;;27.58;16.58;;;;;;;;;;5059594;28;20036;-79
2022/03/29 07:40:17;;;;;;;23.58;17.08;;;;;;;;;;5094573;28;20104;-78
2022/03/29 07:42:42;;;;;;;25.33;16.38;;;;;;;;;;5096879;28;20126;-79
2022/03/29 07:45:11;;;;;;;25.45;14.95;;;;;;;;;;5080268;28;20545;-78
2022/03/29 07:47:37;;;;;;;20.38;16.02;;;;;;;;;;5096939;28;20063;-79
2022/03/29 07:50:06;;;;;;;21.98;15.55;;;;;;;;;;5079693;28;20082;-79
2022/03/29 07:52:35;;;;;;;22.38;14.57;;;;;;;;;;5097109;28;20031;-79
2022/03/29 07:55:01;;;;;;;24.83;14.57;;;;;;;;;;5080239;28;20554;-79
2022/03/29 07:57:26;;;;;;;22.48;15.02;;;;;;;;;;5076328;28;20136;-79
2022/03/29 07:59:52;;;;;;;19.95;14.57;;;;;;;;;;5070962;28;20039;-78
2022/03/29 08:02:17;;;;;;;19.98;14.25;;;;;;;;;;5096730;28;20043;-79
2022/03/29 08:04:43;;;;;;;22.33;14.50;;;;;;;;;;5079590;28;20036;-79
2022/03/29 08:07:08;;;;;;;23.10;14.40;;;;;;;;;;5096643;28;20065;-79
2022/03/29 08:09:34;;;;;;;17.55;12.65;;;;;;;;;;5079453;28;20115;-79
2022/03/29 08:12:00;;;;;;;21.17;13.55;;;;;;;;;;5096500;28;20040;-80
2022/03/29 08:14:25;;;;;;;21.23;13.00;;;;;;;;;;5079663;28;20513;-78
2022/03/29 08:16:55;;;;;;;20.58;13.23;;;;;;;;;;5079498;28;20501;-79
2022/03/29 08:19:21;;;;;;;19.90;12.95;;;;;;;;;;5062820;28;20544;-79
2022/03/29 08:21:49;;;;;;;19.45;13.60;;;;;;;;;;5079243;28;20039;-78
2022/03/29 08:24:24;;;;;;;17.52;12.23;;;;;;;;;;5076549;28;20039;-79
2022/03/29 08:26:51;;;;;;;18.95;12.02;;;;;;;;;;5075853;28;20124;-79
2022/03/29 08:29:21;;;;;;;15.68;11.68;;;;;;;;;;5059682;28;20024;-79
2022/03/29 08:31:49;;;;;;;16.58;11.80;;;;;;;;;;5059975;28;20071;-79
2022/03/29 08:34:14;;;;;;;17.23;11.63;;;;;;;;;;5059864;28;20376;-79
2022/03/29 08:36:40;;;;;;;16.45;12.30;;;;;;;;;;5075907;28;20089;-78
2022/03/29 08:39:06;;;;;;;17.80;12.80;;;;;;;;;;5059103;28;20035;-78
2022/03/29 08:41:37;;;;;;;15.73;11.57;;;;;;;;;;5042205;28;20028;-78
2022/03/29 08:44:03;;;;;;;16.42;10.98;;;;;;;;;;5076213;28;20043;-79
2022/03/29 08:46:39;;;;;;;16.63;11.70;;;;;;;;;;5059788;28;20044;-79
2022/03/29 08:49:08;;;;;;;19.42;12.10;;;;;;;;;;5078972;28;20048;-79
2022/03/29 08:51:35;;;;;;;17.67;12.50;;;;;;;;;;5078241;28;20035;-79
2022/03/29 08:54:00;;;;;;;15.32;11.05;;;;;;;;;;5061565;28;20096;-80
2022/03/29 08:56:25;;;;;;;21.73;11.63;;;;;;;;;;5061993;28;20540;-79
2022/03/29 08:58:51;;;;;;;17.60;11.20;;;;;;;;;;5078413;28;20023;-79
2022/03/29 09:01:19;;;;;;;17.92;11.25;;;;;;;;;;5074741;28;20077;-79
2022/03/29 09:03:48;;;;;;;15.73;9.65;;;;;;;;;;5077985;28;20039;-80
2022/03/29 09:06:22;;;;;;;15.52;10.90;;;;;;;;;;5092495;28;20031;-80
2022/03/29 09:08:47;;;;;;;16.40;10.82;;;;;;;;;;5110504;28;20031;-79
2022/03/29 09:11:14;;;;;;;18.30;10.02;;;;;;;;;;5078086;28;20426;-79
2022/03/29 09:13:40;;;;;;;16.13;10.20;;;;;;;;;;5077797;28;20031;-79
2022/03/29 09:16:09;;;;;;;15.43;9.52;;;;;;;;;;5095135;28;20636;-79
2022/03/29 09:18:35;;;;;;;19.77;12.35;;;;;;;;;;5078772;28;20413;-79
2022/03/29 09:21:08;;;;;;;13.30;9.18;;;;;;;;;;5077617;28;20039;-79
2022/03/29 09:23:34;;;;;;;14.40;9.98;;;;;;;;;;5091285;28;20497;-80
2022/03/29 09:26:00;;;;;;;14.40;9.90;;;;;;;;;;5074205;28;20040;-80
2022/03/29 09:28:25;;;;;;;14.20;9.52;;;;;;;;;;5075087;28;20031;-80
2022/03/29 09:30:52;;;;;;;13.95;9.80;;;;;;;;;;5074724;28;20043;-80
2022/03/29 09:33:29;;;;;;;15.45;9.32;;;;;;;;;;5074860;28;20089;-80
2022/03/29 09:36:07;;;;;;;15.50;8.60;;;;;;;;;;5061432;28;20093;-80
2022/03/29 09:38:37;;;;;;;13.30;9.95;;;;;;;;;;5111385;28;20094;-80
2022/03/29 09:41:04;;;;;;;12.23;7.85;;;;;;;;;;5095098;28;20036;-80
2022/03/29 09:43:30;;;;;;;13.88;9.48;;;;;;;;;;5077932;28;20047;-80
2022/03/29 09:46:00;;;;;;;16.05;9.35;;;;;;;;;;5061141;28;20047;-80
2022/03/29 09:48:27;;;;;;;13.10;8.30;;;;;;;;;;5094407;28;20089;-80
2022/03/29 09:51:09;;;;;;;12.73;8.43;;;;;;;;;;5078031;28;20443;-81
2022/03/29 09:53:43;;;;;;;14.60;7.93;;;;;;;;;;5110757;28;20558;-81
2022/03/29 09:56:10;;;;;;;9.93;7.82;;;;;;;;;;5094955;28;20040;-80
2022/03/29 09:58:36;;;;;;;10.82;6.85;;;;;;;;;;5077292;28;20061;-80
2022/03/29 10:01:02;;;;;;;15.20;8.50;;;;;;;;;;5077646;28;20151;-80
2022/03/29 10:03:27;;;;;;;18.85;8.68;;;;;;;;;;5077541;28;20484;-80
2022/03/29 10:05:54;;;;;;;13.75;7.47;;;;;;;;;;5077029;28;20455;-80
2022/03/29 10:11:14;;;;;;;11.20;7.18;;;;;;;;;;5097357;28;20414;-80
2022/03/29 10:13:40;;;;;;;8.48;6.47;;;;;;;;;;5094880;28;20032;-80
2022/03/29 10:16:10;;;;;;;11.07;6.85;;;;;;;;;;5077100;28;20509;-80
2022/03/29 10:18:36;;;;;;;11.65;6.90;;;;;;;;;;5074205;28;20084;-80
2022/03/29 10:21:03;;;;;;;12.95;6.72;;;;;;;;;;5057324;28;20478;-80
2022/03/29 10:23:29;;;;;;;14.98;7.10;;;;;;;;;;5061444;28;20520;-80
2022/03/29 10:25:54;;;;;;;10.68;7.07;;;;;;;;;;5057177;28;20028;-80
2022/03/29 10:28:21;;;;;;;10.88;6.85;;;;;;;;;;5073952;28;20062;-80
2022/03/29 10:30:46;;;;;;;11.02;7.15;;;;;;;;;;5074264;28;20562;-80
2022/03/29 10:33:18;;;;;;;9.32;5.97;;;;;;;;;;5073990;28;20060;-80
2022/03/29 10:36:00;;;;;;;10.60;6.85;;;;;;;;;;5073612;28;20456;-79
2022/03/29 10:38:47;;;;;;;11.85;6.07;;;;;;;;;;5056548;28;20039;-80
2022/03/29 10:41:33;;;;;;;16.35;6.72;;;;;;;;;;5091816;28;20040;-79
2022/03/29 10:44:08;;;;;;;12.13;6.05;;;;;;;;;;5090777;28;20494;-79
2022/03/29 10:46:36;;;;;;;14.73;8.07;;;;;;;;;;5076242;28;20036;-79
2022/03/29 10:49:24;;;;;;;13.68;7.55;;;;;;;;;;5111317;28;20544;-79
2022/03/29 10:52:19;;;;;;;12.05;7.18;;;;;;;;;;5110004;28;20038;-80
2022/03/29 10:54:44;;;;;;;10.73;7.38;;;;;;;;;;5078912;28;20579;-80
2022/03/29 10:57:25;;;;;;;10.32;5.82;;;;;;;;;;5073044;28;20079;-80
2022/03/29 11:00:10;;;;;;;10.63;6.40;;;;;;;;;;5102246;28;20035;-79
2022/03/29 11:02:36;;;;;;;10.63;7.07;;;;;;;;;;5110772;28;20482;-79
2022/03/29 11:05:05;;;;;;;9.63;6.13;;;;;;;;;;5077038;28;20493;-79
2022/03/29 11:07:37;;;;;;;10.32;5.30;;;;;;;;;;5109837;28;20581;-80
2022/03/29 11:10:19;;;;;;;10.68;5.88;;;;;;;;;;5094013;28;20406;-78
2022/03/29 11:12:54;;;;;;;10.50;6.43;;;;;;;;;;5060434;28;20444;-79
2022/03/29 11:15:32;;;;;;;11.07;5.63;;;;;;;;;;5061089;28;20024;-79
2022/03/29 11:17:57;;;;;;;8.95;5.65;;;;;;;;;;5094479;28;20097;-80
2022/03/29 11:20:32;;;;;;;8.00;5.93;;;;;;;;;;5093679;28;20480;-80
2022/03/29 11:23:18;;;;;;;8.73;5.63;;;;;;;;;;5097167;28;20046;-79
2022/03/29 11:25:45;;;;;;;9.88;5.55;;;;;;;;;;5096484;28;20049;-79
2022/03/29 11:28:12;;;;;;;9.30;6.03;;;;;;;;;;5097986;28;20387;-79
2022/03/29 11:30:38;;;;;;;9.43;4.75;;;;;;;;;;5097648;28;20111;-80
2022/03/29 11:33:05;;;;;;;7.22;5.00;;;;;;;;;;5097674;28;20118;-80
2022/03/29 11:35:34;;;;;;;9.73;5.20;;;;;;;;;;5096782;28;20110;-79
2022/03/29 11:38:13;;;;;;;10.23;6.13;;;;;;;;;;5080293;28;20027;-79
2022/03/29 11:40:39;;;;;;;7.25;5.07;;;;;;;;;;5080651;28;20039;-80
2022/03/29 11:43:06;;;;;;;7.22;4.82;;;;;;;;;;5080376;28;20036;-80
2022/03/29 11:45:39;;;;;;;8.55;5.30;;;;;;;;;;5080114;28;20055;-79
2022/03/29 11:48:07;;;;;;;8.85;5.35;;;;;;;;;;5097569;28;20100;-79
2022/03/29 11:50:45;;;;;;;8.55;5.05;;;;;;;;;;5096935;28;20042;-80
2022/03/29 11:53:26;;;;;;;7.75;4.65;;;;;;;;;;5097497;28;20036;-80
2022/03/29 11:56:14;;;;;;;8.02;4.72;;;;;;;;;;5113884;28;20028;-79
2022/03/29 11:58:40;;;;;;;10.27;4.53;;;;;;;;;;5064040;28;20452;-79
2022/03/29 12:01:12;;;;;;;6.88;4.93;;;;;;;;;;5097070;28;20047;-79
2022/03/29 12:03:38;;;;;;;;;;;;;;;;;;5114077;28;20039;-80
2022/03/29 12:06:08;;;;;;;6.47;4.60;;;;;;;;;;5096859;28;19908;-79
2022/03/29 12:08:46;;;;;;;7.78;4.70;;;;;;;;;;5063482;28;20031;-79
2022/03/29 12:11:12;;;;;;;6.00;4.10;;;;;;;;;;5097161;28;20036;-79
2022/03/29 12:13:38;;;;;;;6.43;4.68;;;;;;;;;;5096417;28;20481;-79
2022/03/29 12:16:23;;;;;;;7.53;4.20;;;;;;;;;;5062909;28;20035;-79
2022/03/29 12:18:49;;;;;;;6.03;3.80;;;;;;;;;;5079219;28;20028;-80
2022/03/29 12:21:16;;;;;;;6.57;4.20;;;;;;;;;;5096604;28;20115;-79
2022/03/29 12:23:42;;;;;;;7.60;4.72;;;;;;;;;;5058795;28;20035;-79
2022/03/29 12:26:11;;;;;;;7.03;4.25;;;;;;;;;;5092595;28;20074;-79
2022/03/29 12:28:37;;;;;;;6.70;4.35;;;;;;;;;;5075998;28;20028;-79
2022/03/29 12:31:08;;;;;;;7.45;4.20;;;;;;;;;;5059545;28;20032;-79
2022/03/29 12:33:34;;;;;;;7.55;5.65;;;;;;;;;;5076452;28;20437;-79
2022/03/29 12:36:10;;;;;;;8.20;4.30;;;;;;;;;;5093287;28;20094;-79
2022/03/29 12:38:54;;;;;;;8.23;4.18;;;;;;;;;;5059045;28;20122;-79
2022/03/29 12:41:52;;;;;;;7.05;3.90;;;;;;;;;;5075844;28;20036;-79
2022/03/29 12:44:38;;;;;;;9.68;4.63;;;;;;;;;;5095139;28;20038;-79
2022/03/29 12:47:05;;;;;;;5.47;3.92;;;;;;;;;;5096163;28;20031;-79
2022/03/29 12:49:32;;;;;;;6.97;3.78;;;;;;;;;;5078918;28;20048;-79
2022/03/29 12:52:00;;;;;;;5.43;3.85;;;;;;;;;;5095734;28;20043;-79
2022/03/29 12:54:41;;;;;;;6.50;4.43;;;;;;;;;;5095541;28;20066;-79
2022/03/29 12:57:08;;;;;;;6.33;4.00;;;;;;;;;;5079635;28;20050;-79
2022/03/29 12:59:38;;;;;;;5.97;3.55;;;;;;;;;;5075401;28;20040;-79
2022/03/29 13:02:17;;;;;;;5.18;3.83;;;;;;;;;;5075552;28;20028;-80
2022/03/29 13:04:45;;;;;;;6.57;3.63;;;;;;;;;;5075345;28;20042;-79
2022/03/29 13:07:11;;;;;;;5.10;3.80;;;;;;;;;;5093328;28;20036;-79
2022/03/29 13:09:37;;;;;;;7.13;4.07;;;;;;;;;;5058449;28;20046;-79
2022/03/29 13:12:12;;;;;;;6.20;3.70;;;;;;;;;;5075342;28;20036;-79
2022/03/29 13:14:39;;;;;;;5.80;3.22;;;;;;;;;;5058505;28;20039;-79
2022/03/29 13:17:04;;;;;;;5.43;3.50;;;;;;;;;;5058123;28;20035;-79
2022/03/29 13:19:30;;;;;;;6.65;3.63;;;;;;;;;;5058398;28;20040;-79
2022/03/29 13:22:03;;;;;;;7.43;3.58;;;;;;;;;;5075002;28;20119;-79
2022/03/29 13:24:38;;;;;;;5.25;3.22;;;;;;;;;;5058257;28;20436;-80
2022/03/29 13:27:06;;;;;;;4.65;3.17;;;;;;;;;;5075039;28;20024;-79
2022/03/29 13:29:33;;;;;;;4.50;3.20;;;;;;;;;;5058362;28;20486;-80
2022/03/29 13:31:59;;;;;;;6.03;3.28;;;;;;;;;;5058462;28;20115;-79
2022/03/29 13:34:25;;;;;;;5.45;3.65;;;;;;;;;;5074477;28;20106;-79
2022/03/29 13:36:51;;;;;;;4.00;2.90;;;;;;;;;;5074447;28;20127;-79
2022/03/29 13:39:16;;;;;;;5.93;3.47;;;;;;;;;;5057328;28;20036;-79
2022/03/29 13:41:42;;;;;;;5.63;3.10;;;;;;;;;;5041384;28;20050;-79
2022/03/29 13:44:07;;;;;;;5.00;3.17;;;;;;;;;;5058174;28;20115;-79
2022/03/29 13:46:33;;;;;;;5.57;3.53;;;;;;;;;;5058950;28;20036;-80
2022/03/29 13:48:58;;;;;;;5.22;3.10;;;;;;;;;;5077551;28;20104;-79
2022/03/29 13:51:24;;;;;;;5.05;3.40;;;;;;;;;;5077977;28;20490;-80
2022/03/29 13:53:49;;;;;;;5.30;3.40;;;;;;;;;;5077226;28;20051;-80
2022/03/29 13:56:15;;;;;;;4.22;2.80;;;;;;;;;;5060829;28;20036;-80
2022/03/29 13:58:41;;;;;;;5.80;3.03;;;;;;;;;;5077437;28;20032;-79
2022/03/29 14:01:06;;;;;;;4.78;3.22;;;;;;;;;;5094339;28;20433;-80
2022/03/29 14:03:32;;;;;;;5.13;3.58;;;;;;;;;;5094432;28;20031;-79
2022/03/29 14:05:58;;;;;;;5.32;3.00;;;;;;;;;;5060919;28;20409;-80
2022/03/29 14:08:27;;;;;;;4.93;2.53;;;;;;;;;;5077567;28;20027;-80
2022/03/29 14:10:53;;;;;;;4.93;3.08;;;;;;;;;;5062007;28;20039;-79
2022/03/29 14:13:19;;;;;;;4.57;2.88;;;;;;;;;;5077518;28;20035;-80
2022/03/29 14:15:47;;;;;;;4.38;2.90;;;;;;;;;;5077234;28;20084;-79
2022/03/29 14:18:16;;;;;;;4.93;2.90;;;;;;;;;;5078161;28;20036;-79
2022/03/29 14:20:42;;;;;;;5.32;3.35;;;;;;;;;;5094392;28;20046;-80
2022/03/29 14:23:09;;;;;;;3.50;2.70;;;;;;;;;;5090508;28;20062;-79
2022/03/29 14:25:38;;;;;;;4.82;3.20;;;;;;;;;;5057048;28;20502;-79
2022/03/29 14:28:04;;;;;;;4.65;3.30;;;;;;;;;;5073788;28;20036;-80
2022/03/29 14:30:30;;;;;;;5.88;3.58;;;;;;;;;;5090718;28;20046;-80
2022/03/29 14:32:55;;;;;;;4.82;3.03;;;;;;;;;;5074026;28;20032;-79
2022/03/29 14:35:21;;;;;;;5.60;3.33;;;;;;;;;;5040673;28;20383;-79
2022/03/29 14:37:47;;;;;;;8.63;3.50;;;;;;;;;;5090481;28;20036;-80
2022/03/29 14:40:13;;;;;;;5.90;3.67;;;;;;;;;;5057338;28;20067;-79
2022/03/29 14:42:39;;;;;;;5.15;3.90;;;;;;;;;;5057102;28;20036;-79
2022/03/29 14:45:05;;;;;;;5.93;4.05;;;;;;;;;;5057205;28;20475;-80
2022/03/29 14:47:31;;;;;;;6.22;3.70;;;;;;;;;;5083000;28;20036;-80